createdAt,value
2023-02-11T00:00:58.527Z,2.85
2023-02-11T00:04:05.036Z,2.81
2023-02-11T00:07:09.095Z,2.83
2023-02-11T00:10:13.109Z,2.87
2023-02-11T00:13:17.136Z,2.89
2023-02-11T00:16:21.675Z,2.92
2023-02-11T00:19:25.790Z,2.90
2023-02-11T00:22:29.772Z,2.91
2023-02-11T00:25:34.165Z,2.89
2023-02-11T00:28:38.243Z,2.89
2023-02-11T00:31:42.447Z,2.87
2023-02-11T00:34:46.665Z,2.85
2023-02-11T00:37:53.841Z,2.81
2023-02-11T00:40:57.868Z,2.80
2023-02-11T00:44:03.819Z,2.81
2023-02-11T00:47:07.848Z,2.84
2023-02-11T00:50:11.858Z,2.88
2023-02-11T00:53:15.790Z,2.91
2023-02-11T00:56:19.896Z,2.94
2023-02-11T00:59:23.905Z,2.95
2023-02-11T01:02:27.925Z,2.94
2023-02-11T01:05:31.991Z,2.91
2023-02-11T01:08:37.378Z,2.88
2023-02-11T01:11:41.348Z,2.86
2023-02-11T01:14:45.375Z,2.83
2023-02-11T01:17:49.333Z,2.83
2023-02-11T01:20:54.290Z,2.85
2023-02-11T01:23:58.288Z,2.87
2023-02-11T01:27:02.304Z,2.89
2023-02-11T01:30:09.160Z,2.91
2023-02-11T01:33:13.311Z,2.92
2023-02-11T01:36:17.244Z,2.91
2023-02-11T01:39:21.236Z,2.89
2023-02-11T01:42:25.458Z,2.82
2023-02-11T01:45:45.140Z,2.79
2023-02-11T01:49:11.645Z,2.75
2023-02-11T01:52:25.530Z,2.73
2023-02-11T01:55:48.643Z,2.69
2023-02-11T01:59:02.852Z,2.68
2023-02-11T02:02:10.210Z,2.71
2023-02-11T02:05:35.249Z,2.74
2023-02-11T02:08:47.022Z,2.79
2023-02-11T02:11:51.783Z,2.79
2023-02-11T02:15:14.639Z,2.79
2023-02-11T02:18:27.747Z,2.77
2023-02-11T02:21:43.661Z,2.75
2023-02-11T02:25:01.248Z,2.73
2023-02-11T02:28:14.056Z,2.70
2023-02-11T02:32:01.754Z,2.67
2023-02-11T02:35:23.894Z,2.65
2023-02-11T02:38:34.476Z,2.67
2023-02-11T02:41:39.666Z,2.71
2023-02-11T02:44:49.895Z,2.74
2023-02-11T02:47:53.986Z,2.74
2023-02-11T02:51:24.113Z,2.73
2023-02-11T02:54:28.030Z,2.72
2023-02-11T02:57:57.947Z,2.70
2023-02-11T03:01:01.923Z,2.68
2023-02-11T03:04:08.748Z,2.64
2023-02-11T03:07:23.006Z,2.61
2023-02-11T03:10:36.820Z,2.63
2023-02-11T03:13:42.162Z,2.66
2023-02-11T03:16:48.564Z,2.70
2023-02-11T03:19:52.473Z,2.73
2023-02-11T03:23:03.228Z,2.75
2023-02-11T03:26:38.252Z,2.77
2023-02-11T03:29:55.548Z,2.78
2023-02-11T03:33:07.335Z,2.78
2023-02-11T03:36:20.217Z,2.77
2023-02-11T03:39:30.821Z,2.74
2023-02-11T03:42:41.569Z,2.71
2023-02-11T03:45:48.533Z,2.65
2023-02-11T03:48:59.046Z,2.61
2023-02-11T03:52:06.029Z,2.62
2023-02-11T03:55:15.803Z,2.64
2023-02-11T03:58:19.780Z,2.69
2023-02-11T04:01:23.900Z,2.71
2023-02-11T04:04:28.048Z,2.72
2023-02-11T04:07:32.521Z,2.72
2023-02-11T04:10:36.875Z,2.72
2023-02-11T04:13:40.895Z,2.71
2023-02-11T04:16:44.896Z,2.70
2023-02-11T04:19:48.952Z,2.67
2023-02-11T04:22:52.953Z,2.64
2023-02-11T04:25:56.949Z,2.63
2023-02-11T04:29:00.871Z,2.64
2023-02-11T04:32:04.968Z,2.64
2023-02-11T04:35:09.314Z,2.65
2023-02-11T04:38:13.842Z,2.65
2023-02-11T04:41:17.788Z,2.64
2023-02-11T04:44:21.730Z,2.62
2023-02-11T04:47:25.665Z,2.58
2023-02-11T04:50:30.116Z,2.53
2023-02-11T04:53:34.825Z,2.47
2023-02-11T04:56:39.333Z,2.43
2023-02-11T04:59:43.386Z,2.37
2023-02-11T05:02:47.503Z,2.31
2023-02-11T05:05:51.741Z,2.27
2023-02-11T05:08:55.997Z,2.28
2023-02-11T05:11:59.890Z,2.29
2023-02-11T05:15:04.884Z,2.32
2023-02-11T05:18:08.914Z,2.34
2023-02-11T05:21:16.219Z,2.35
2023-02-11T05:24:20.388Z,2.35
2023-02-11T05:27:24.350Z,2.34
2023-02-11T05:30:28.544Z,2.34
2023-02-11T05:33:32.974Z,2.31
2023-02-11T05:36:36.999Z,2.29
2023-02-11T05:39:41.014Z,2.27
2023-02-11T05:42:45.017Z,2.22
2023-02-11T05:45:49.484Z,2.21
2023-02-11T05:48:53.881Z,2.22
2023-02-11T05:51:57.792Z,2.25
2023-02-11T05:55:01.814Z,2.26
2023-02-11T05:58:06.493Z,2.27
2023-02-11T06:01:10.460Z,2.28
2023-02-11T06:04:14.468Z,2.28
2023-02-11T06:07:19.800Z,2.26
2023-02-11T06:10:23.725Z,2.25
2023-02-11T06:13:27.748Z,2.24
2023-02-11T06:16:31.794Z,2.23
2023-02-11T06:19:36.184Z,2.23
2023-02-11T06:22:40.160Z,2.23
2023-02-11T06:25:44.219Z,2.25
2023-02-11T06:28:48.612Z,2.30
2023-02-11T06:31:52.628Z,2.37
2023-02-11T06:34:56.703Z,2.42
2023-02-11T06:38:00.998Z,2.48
2023-02-11T06:41:04.948Z,2.51
2023-02-11T06:44:08.929Z,2.54
2023-02-11T06:47:12.834Z,2.56
2023-02-11T06:50:16.854Z,2.57
2023-02-11T06:53:20.870Z,2.58
2023-02-11T06:56:27.513Z,2.61
2023-02-11T06:59:31.553Z,2.65
2023-02-11T07:02:36.056Z,2.71
2023-02-11T07:05:43.490Z,2.78
2023-02-11T07:08:48.292Z,2.88
2023-02-11T07:11:52.339Z,2.96
2023-02-11T07:14:57.540Z,3.05
2023-02-11T07:18:01.423Z,3.10
2023-02-11T07:21:07.358Z,3.09
2023-02-11T07:24:11.739Z,3.09
2023-02-11T07:27:15.720Z,3.08
2023-02-11T07:30:19.666Z,3.05
2023-02-11T07:33:24.007Z,3.02
2023-02-11T07:36:30.585Z,3.00
2023-02-11T07:39:34.623Z,2.98
2023-02-11T07:42:40.687Z,2.95
2023-02-11T07:45:44.712Z,2.93
2023-02-11T07:48:49.386Z,2.92
2023-02-11T07:51:53.643Z,2.95
2023-02-11T07:54:57.672Z,2.96
2023-02-11T07:58:01.686Z,2.96
2023-02-11T08:01:08.447Z,2.95
2023-02-11T08:04:12.511Z,2.95
2023-02-11T08:07:17.726Z,2.94
2023-02-11T08:10:22.521Z,2.91
2023-02-11T08:13:27.161Z,2.88
2023-02-11T08:16:36.343Z,2.88
2023-02-11T08:19:40.278Z,2.90
2023-02-11T08:22:44.454Z,2.92
2023-02-11T08:25:48.470Z,2.94
2023-02-11T08:28:54.436Z,2.96
2023-02-11T08:31:58.457Z,2.94
2023-02-11T08:35:02.773Z,2.90
2023-02-11T08:38:06.989Z,2.85
2023-02-11T08:41:11.498Z,2.82
2023-02-11T08:44:16.526Z,2.82
2023-02-11T08:47:20.577Z,2.81
2023-02-11T08:50:24.624Z,2.80
2023-02-11T08:53:28.646Z,2.76
2023-02-11T08:56:33.634Z,2.73
2023-02-11T08:59:40.044Z,2.69
2023-02-11T09:02:44.473Z,2.67
2023-02-11T09:05:50.506Z,2.66
2023-02-11T09:08:56.988Z,2.69
2023-02-11T09:12:01.525Z,2.74
2023-02-11T09:15:06.665Z,2.77
2023-02-11T09:18:10.585Z,2.79
2023-02-11T09:21:16.414Z,2.80
2023-02-11T09:24:20.452Z,2.79
2023-02-11T09:27:24.314Z,2.80
2023-02-11T09:30:28.344Z,2.84
2023-02-11T09:33:33.246Z,2.90
2023-02-11T09:36:39.363Z,2.95
2023-02-11T09:39:45.428Z,2.97
2023-02-11T09:43:11.834Z,2.98
2023-02-11T09:46:17.553Z,2.99
2023-02-11T09:49:45.499Z,2.96
2023-02-11T09:52:52.598Z,2.94
2023-02-11T09:56:00.106Z,2.96
2023-02-11T09:59:04.775Z,2.99
2023-02-11T10:02:17.298Z,3.00
2023-02-11T10:05:44.802Z,3.01
2023-02-11T10:09:06.952Z,3.00
2023-02-11T10:12:45.063Z,2.99
2023-02-11T10:16:03.947Z,3.01
2023-02-11T10:19:14.143Z,3.04
2023-02-11T10:22:34.794Z,3.09
2023-02-11T10:25:49.048Z,3.12
2023-02-11T10:28:55.714Z,3.13
2023-02-11T10:32:03.034Z,3.13
2023-02-11T10:35:18.499Z,3.13
2023-02-11T10:38:22.516Z,3.16
2023-02-11T10:41:32.683Z,3.20
2023-02-11T10:44:58.792Z,3.20
2023-02-11T10:48:27.145Z,3.17
2023-02-11T10:51:34.407Z,3.11
2023-02-11T10:54:38.404Z,3.08
2023-02-11T10:58:03.035Z,3.07
2023-02-11T11:01:22.415Z,3.08
2023-02-11T11:04:30.810Z,3.10
2023-02-11T11:07:36.416Z,3.09
2023-02-11T11:10:47.646Z,3.07
2023-02-11T11:14:00.375Z,3.05
2023-02-11T11:17:18.510Z,3.05
2023-02-11T11:20:25.269Z,3.08
2023-02-11T11:23:34.615Z,3.10
2023-02-11T11:26:48.989Z,3.10
2023-02-11T11:29:55.943Z,3.09
2023-02-11T11:33:01.183Z,3.08
2023-02-11T11:36:09.059Z,3.08
2023-02-11T11:39:25.229Z,3.10
2023-02-11T11:42:32.593Z,3.14
2023-02-11T11:45:36.503Z,3.17
2023-02-11T11:48:46.683Z,3.17
2023-02-11T11:52:19.556Z,3.17
2023-02-11T11:55:33.484Z,3.16
2023-02-11T11:58:37.795Z,3.18
2023-02-11T12:02:19.700Z,3.21
2023-02-11T12:05:33.096Z,3.26
2023-02-11T12:08:58.375Z,3.30
2023-02-11T12:12:32.521Z,3.33
2023-02-11T12:16:07.111Z,3.35
2023-02-11T12:19:14.037Z,3.37
2023-02-11T12:22:31.064Z,3.42
2023-02-11T12:25:45.432Z,3.47
2023-02-11T12:29:10.906Z,3.53
2023-02-11T12:32:30.163Z,3.59
2023-02-11T12:36:09.858Z,3.62
2023-02-11T12:39:50.731Z,3.62
2023-02-11T12:43:13.184Z,3.62
2023-02-11T12:46:34.413Z,3.65
2023-02-11T12:49:54.178Z,3.70
2023-02-11T12:53:41.550Z,3.74
2023-02-11T12:56:50.556Z,3.78
2023-02-11T13:00:04.397Z,3.78
2023-02-11T13:03:22.601Z,3.81
2023-02-11T13:06:36.101Z,3.86
2023-02-11T13:09:51.578Z,3.93
2023-02-11T13:13:15.679Z,3.99
2023-02-11T13:16:45.430Z,4.02
2023-02-11T13:20:01.455Z,4.02
2023-02-11T13:23:24.131Z,4.02
2023-02-11T13:26:57.957Z,4.06
2023-02-11T13:30:20.613Z,4.10
2023-02-11T13:33:35.196Z,4.11
2023-02-11T13:36:39.180Z,4.11
2023-02-11T13:39:43.197Z,4.14
2023-02-11T13:42:56.678Z,4.17
2023-02-11T13:46:04.305Z,4.23
2023-02-11T13:49:20.019Z,4.28
2023-02-11T13:52:37.487Z,4.32
2023-02-11T13:55:46.048Z,4.34
2023-02-11T13:58:51.100Z,4.36
2023-02-11T14:02:40.559Z,4.37
2023-02-11T14:06:29.149Z,4.40
2023-02-11T14:09:37.381Z,4.40
2023-02-11T14:12:41.588Z,4.42
2023-02-11T14:15:46.682Z,4.46
2023-02-11T14:18:52.068Z,4.50
2023-02-11T14:22:06.451Z,4.50
2023-02-11T14:25:23.050Z,4.53
2023-02-11T14:28:34.470Z,4.55
2023-02-11T14:31:53.777Z,4.58
2023-02-11T14:35:10.526Z,4.60
2023-02-11T14:38:34.305Z,4.60
2023-02-11T14:41:47.550Z,4.61
2023-02-11T14:44:55.034Z,4.64
2023-02-11T14:48:08.510Z,4.65
2023-02-11T14:51:49.876Z,4.65
2023-02-11T14:55:06.578Z,4.66
2023-02-11T14:58:25.120Z,4.66
2023-02-11T15:01:38.251Z,4.68
2023-02-11T15:04:44.128Z,4.70
2023-02-11T15:07:52.392Z,4.68
2023-02-11T15:10:57.686Z,4.70
2023-02-11T15:14:20.823Z,4.71
2023-02-11T15:17:28.946Z,4.70
2023-02-11T15:20:33.976Z,4.68
2023-02-11T15:23:39.141Z,4.70
2023-02-11T15:26:43.158Z,4.72
2023-02-11T15:29:50.653Z,4.71
2023-02-11T15:33:05.482Z,4.71
2023-02-11T15:36:11.426Z,4.69
2023-02-11T15:39:29.416Z,4.67
2023-02-11T15:42:47.157Z,4.68
2023-02-11T15:46:01.702Z,4.67
2023-02-11T15:49:08.625Z,4.64
2023-02-11T15:52:25.425Z,4.64
2023-02-11T15:55:30.227Z,4.66
2023-02-11T15:58:39.287Z,4.67
2023-02-11T16:01:44.901Z,4.67
2023-02-11T16:04:54.885Z,4.67
2023-02-11T16:08:00.768Z,4.70
2023-02-11T16:11:09.206Z,4.72
2023-02-11T16:14:30.098Z,4.73
2023-02-11T16:17:34.129Z,4.70
2023-02-11T16:20:38.107Z,4.69
2023-02-11T16:23:42.639Z,4.69
2023-02-11T16:26:50.286Z,4.71
2023-02-11T16:29:54.879Z,4.69
2023-02-11T16:32:58.721Z,4.69
2023-02-11T16:36:11.601Z,4.72
2023-02-11T16:39:17.416Z,4.74
2023-02-11T16:42:21.387Z,4.76
2023-02-11T16:45:25.407Z,4.77
2023-02-11T16:48:29.524Z,4.76
2023-02-11T16:51:33.536Z,4.78
2023-02-11T16:54:37.756Z,4.80
2023-02-11T16:57:41.772Z,4.81
2023-02-11T17:00:48.282Z,4.81
2023-02-11T17:03:54.207Z,4.81
2023-02-11T17:06:58.784Z,4.82
2023-02-11T17:10:03.368Z,4.82
2023-02-11T17:13:07.470Z,4.83
2023-02-11T17:16:18.508Z,4.82
2023-02-11T17:19:22.679Z,4.83
2023-02-11T17:22:26.681Z,4.83
2023-02-11T17:25:31.208Z,4.85
2023-02-11T17:28:35.301Z,4.85
2023-02-11T17:31:40.861Z,4.87
2023-02-11T17:34:45.113Z,4.86
2023-02-11T17:37:49.423Z,4.84
2023-02-11T17:40:58.975Z,4.86
2023-02-11T17:44:03.472Z,4.90
2023-02-11T17:47:07.825Z,4.93
2023-02-11T17:50:11.905Z,4.96
2023-02-11T17:53:15.967Z,4.96
2023-02-11T17:56:20.632Z,4.96
2023-02-11T17:59:25.944Z,4.96
2023-02-11T18:02:29.977Z,4.97
2023-02-11T18:05:36.104Z,4.99
2023-02-11T18:08:41.868Z,5.01
2023-02-11T18:11:46.635Z,5.01
2023-02-11T18:14:56.106Z,5.00
2023-02-11T18:18:01.609Z,5.01
2023-02-11T18:21:08.999Z,5.02
2023-02-11T18:24:13.225Z,5.06
2023-02-11T18:27:17.122Z,5.07
2023-02-11T18:30:22.381Z,5.06
2023-02-11T18:33:27.183Z,5.05
2023-02-11T18:36:31.232Z,5.04
2023-02-11T18:39:35.134Z,5.06
2023-02-11T18:42:39.674Z,5.07
2023-02-11T18:45:45.027Z,5.07
2023-02-11T18:48:50.156Z,5.08
2023-02-11T18:51:55.000Z,5.08
2023-02-11T18:54:59.014Z,5.09
2023-02-11T18:58:03.017Z,5.10
2023-02-11T19:01:13.454Z,5.09
2023-02-11T19:04:20.042Z,5.11
2023-02-11T19:07:25.278Z,5.13
2023-02-11T19:10:29.430Z,5.11
2023-02-11T19:13:33.451Z,5.10
2023-02-11T19:16:40.349Z,5.10
2023-02-11T19:19:44.419Z,5.14
2023-02-11T19:22:48.366Z,5.16
2023-02-11T19:25:52.620Z,5.13
2023-02-11T19:28:59.065Z,5.09
2023-02-11T19:32:05.835Z,5.09
2023-02-11T19:35:09.910Z,5.13
2023-02-11T19:38:15.917Z,5.16
2023-02-11T19:41:22.509Z,5.18
2023-02-11T19:44:26.609Z,5.19
2023-02-11T19:47:31.337Z,5.19
2023-02-11T19:50:35.361Z,5.22
2023-02-11T19:53:39.340Z,5.25
2023-02-11T19:56:44.924Z,5.27
2023-02-11T19:59:49.363Z,5.25
2023-02-11T20:02:53.319Z,5.25
2023-02-11T20:05:57.382Z,5.24
2023-02-11T20:09:11.863Z,5.25
2023-02-11T20:12:15.868Z,5.27
2023-02-11T20:15:19.884Z,5.27
2023-02-11T20:18:23.810Z,5.23
2023-02-11T20:21:30.870Z,5.19
2023-02-11T20:24:35.205Z,5.19
2023-02-11T20:27:39.114Z,5.20
2023-02-11T20:30:43.016Z,5.21
2023-02-11T20:33:47.743Z,5.20
2023-02-11T20:36:52.719Z,5.20
2023-02-11T20:39:58.966Z,5.21
2023-02-11T20:43:02.908Z,5.21
2023-02-11T20:46:08.252Z,5.24
2023-02-11T20:49:18.900Z,5.26
2023-02-11T20:52:23.005Z,5.26
2023-02-11T20:55:26.956Z,5.24
2023-02-11T20:58:31.948Z,5.23
2023-02-11T21:01:40.836Z,5.23
2023-02-11T21:04:44.891Z,5.24
2023-02-11T21:07:49.019Z,5.23
2023-02-11T21:10:53.039Z,5.22
2023-02-11T21:13:57.310Z,5.21
2023-02-11T21:17:01.274Z,5.21
2023-02-11T21:20:05.792Z,5.22
2023-02-11T21:23:09.770Z,5.21
2023-02-11T21:26:15.181Z,5.21
2023-02-11T21:29:19.308Z,5.20
2023-02-11T21:32:23.312Z,5.18
2023-02-11T21:35:27.322Z,5.21
2023-02-11T21:38:31.442Z,5.20
2023-02-11T21:41:35.640Z,5.21
2023-02-11T21:44:39.677Z,5.18
2023-02-11T21:47:43.575Z,5.14
2023-02-11T21:50:47.586Z,5.10
2023-02-11T21:53:59.615Z,5.07
2023-02-11T21:57:03.641Z,5.06
2023-02-11T22:00:09.440Z,5.00
2023-02-11T22:03:13.588Z,4.92
2023-02-11T22:06:26.248Z,4.84
2023-02-11T22:09:30.338Z,4.69
2023-02-11T22:12:34.352Z,4.56
2023-02-11T22:15:38.367Z,4.46
2023-02-11T22:18:46.487Z,4.38
2023-02-11T22:21:50.564Z,4.30
2023-02-11T22:24:55.036Z,4.26
2023-02-11T22:27:58.950Z,4.20
2023-02-11T22:31:03.077Z,4.16
2023-02-11T22:34:07.474Z,4.11
2023-02-11T22:37:12.009Z,4.07
2023-02-11T22:40:16.639Z,4.04
2023-02-11T22:43:21.322Z,3.98
2023-02-11T22:46:25.886Z,3.97
2023-02-11T22:49:32.562Z,3.93
2023-02-11T22:52:36.466Z,3.87
2023-02-11T22:55:40.601Z,3.84
2023-02-11T22:58:44.712Z,3.83
2023-02-11T23:01:49.350Z,3.84
2023-02-11T23:04:53.645Z,3.79
2023-02-11T23:07:57.887Z,3.71
2023-02-11T23:11:11.270Z,3.64
2023-02-11T23:14:15.344Z,3.56
2023-02-11T23:17:19.757Z,3.48
2023-02-11T23:20:24.244Z,3.42
2023-02-11T23:23:28.210Z,3.37
2023-02-11T23:26:32.510Z,3.31
2023-02-11T23:29:36.526Z,3.25
2023-02-11T23:32:40.950Z,3.21
2023-02-11T23:35:44.883Z,3.13
2023-02-11T23:38:49.006Z,3.03
2023-02-11T23:41:58.992Z,2.93
2023-02-11T23:45:03.480Z,2.84
2023-02-11T23:48:07.507Z,2.76
2023-02-11T23:51:11.525Z,2.68
2023-02-11T23:54:15.522Z,2.66
2023-02-11T23:57:19.553Z,2.64
